sensor_id;sensor_type;location;lat;lon;timestamp;temperature;humidity
9497;DHT22;4786;51.270;4.456;2023-06-10T00:00:48;22.90;99.90
9497;DHT22;4786;51.270;4.456;2023-06-10T00:03:16;22.90;99.90
9497;DHT22;4786;51.270;4.456;2023-06-10T00:05:42;22.90;99.90
9497;DHT22;4786;51.270;4.456;2023-06-10T00:08:08;22.80;99.90
9497;DHT22;4786;51.270;4.456;2023-06-10T00:10:34;22.80;99.90
9497;DHT22;4786;51.270;4.456;2023-06-10T00:13:01;22.70;99.90
9497;DHT22;4786;51.270;4.456;2023-06-10T00:15:28;22.70;99.90
9497;DHT22;4786;51.270;4.456;2023-06-10T00:17:54;22.70;99.90
9497;DHT22;4786;51.270;4.456;2023-06-10T00:20:21;22.60;99.90
9497;DHT22;4786;51.270;4.456;2023-06-10T00:22:49;22.60;99.90
9497;DHT22;4786;51.270;4.456;2023-06-10T00:25:15;22.50;99.90
9497;DHT22;4786;51.270;4.456;2023-06-10T00:27:41;22.50;99.90
9497;DHT22;4786;51.270;4.456;2023-06-10T00:30:07;22.40;99.90
9497;DHT22;4786;51.270;4.456;2023-06-10T00:32:34;22.40;99.90
9497;DHT22;4786;51.270;4.456;2023-06-10T00:35:01;22.30;99.90
9497;DHT22;4786;51.270;4.456;2023-06-10T00:37:27;22.30;99.90
9497;DHT22;4786;51.270;4.456;2023-06-10T00:39:54;22.30;99.90
9497;DHT22;4786;51.270;4.456;2023-06-10T00:42:20;22.30;99.90
9497;DHT22;4786;51.270;4.456;2023-06-10T00:44:46;22.20;99.90
9497;DHT22;4786;51.270;4.456;2023-06-10T00:47:12;22.20;99.90
9497;DHT22;4786;51.270;4.456;2023-06-10T00:49:38;22.20;99.90
9497;DHT22;4786;51.270;4.456;2023-06-10T00:52:05;22.20;99.90
9497;DHT22;4786;51.270;4.456;2023-06-10T00:54:32;22.20;99.90
9497;DHT22;4786;51.270;4.456;2023-06-10T00:57:01;22.10;99.90
9497;DHT22;4786;51.270;4.456;2023-06-10T00:59:28;22.10;99.90
9497;DHT22;4786;51.270;4.456;2023-06-10T01:01:56;22.10;99.90
9497;DHT22;4786;51.270;4.456;2023-06-10T01:04:22;22.00;99.90
9497;DHT22;4786;51.270;4.456;2023-06-10T01:10:24;22.00;99.90
9497;DHT22;4786;51.270;4.456;2023-06-10T01:13:12;22.00;99.90
9497;DHT22;4786;51.270;4.456;2023-06-10T01:15:38;21.90;99.90
9497;DHT22;4786;51.270;4.456;2023-06-10T01:18:06;21.90;99.90
9497;DHT22;4786;51.270;4.456;2023-06-10T01:20:35;21.80;99.90
9497;DHT22;4786;51.270;4.456;2023-06-10T01:23:05;21.80;99.90
9497;DHT22;4786;51.270;4.456;2023-06-10T01:25:32;21.80;99.90
9497;DHT22;4786;51.270;4.456;2023-06-10T01:30:55;21.70;99.90
9497;DHT22;4786;51.270;4.456;2023-06-10T01:33:29;21.70;99.90
9497;DHT22;4786;51.270;4.456;2023-06-10T01:35:58;21.60;99.90
9497;DHT22;4786;51.270;4.456;2023-06-10T01:38:26;21.60;99.90
9497;DHT22;4786;51.270;4.456;2023-06-10T01:40:53;21.60;99.90
9497;DHT22;4786;51.270;4.456;2023-06-10T01:43:21;21.50;99.90
9497;DHT22;4786;51.270;4.456;2023-06-10T01:45:47;21.50;99.90
9497;DHT22;4786;51.270;4.456;2023-06-10T01:48:13;21.50;99.90
9497;DHT22;4786;51.270;4.456;2023-06-10T01:50:39;21.50;99.90
9497;DHT22;4786;51.270;4.456;2023-06-10T01:53:05;21.50;99.90
9497;DHT22;4786;51.270;4.456;2023-06-10T01:55:32;21.40;99.90
9497;DHT22;4786;51.270;4.456;2023-06-10T01:57:58;21.40;99.90
9497;DHT22;4786;51.270;4.456;2023-06-10T02:00:23;21.40;99.90
9497;DHT22;4786;51.270;4.456;2023-06-10T02:02:49;21.30;99.90
9497;DHT22;4786;51.270;4.456;2023-06-10T02:05:15;21.30;99.90
9497;DHT22;4786;51.270;4.456;2023-06-10T02:07:41;21.30;99.90
9497;DHT22;4786;51.270;4.456;2023-06-10T02:10:07;21.20;99.90
9497;DHT22;4786;51.270;4.456;2023-06-10T02:12:34;21.20;99.90
9497;DHT22;4786;51.270;4.456;2023-06-10T02:15:00;21.30;99.90
9497;DHT22;4786;51.270;4.456;2023-06-10T02:17:26;21.20;99.90
9497;DHT22;4786;51.270;4.456;2023-06-10T02:19:52;21.20;99.90
9497;DHT22;4786;51.270;4.456;2023-06-10T02:22:22;21.20;99.90
9497;DHT22;4786;51.270;4.456;2023-06-10T02:24:49;21.10;99.90
9497;DHT22;4786;51.270;4.456;2023-06-10T02:27:15;21.10;99.90
9497;DHT22;4786;51.270;4.456;2023-06-10T02:29:41;21.00;99.90
9497;DHT22;4786;51.270;4.456;2023-06-10T02:32:07;21.00;99.90
9497;DHT22;4786;51.270;4.456;2023-06-10T02:34:34;21.00;99.90
9497;DHT22;4786;51.270;4.456;2023-06-10T02:37:00;21.00;99.90
9497;DHT22;4786;51.270;4.456;2023-06-10T02:39:27;21.00;99.90
9497;DHT22;4786;51.270;4.456;2023-06-10T02:41:54;20.90;99.90
9497;DHT22;4786;51.270;4.456;2023-06-10T02:44:27;20.90;99.90
9497;DHT22;4786;51.270;4.456;2023-06-10T02:46:53;20.90;99.90
9497;DHT22;4786;51.270;4.456;2023-06-10T02:49:19;20.90;99.90
9497;DHT22;4786;51.270;4.456;2023-06-10T02:51:45;20.80;99.90
9497;DHT22;4786;51.270;4.456;2023-06-10T02:54:11;20.80;99.90
9497;DHT22;4786;51.270;4.456;2023-06-10T02:56:36;20.80;99.90
9497;DHT22;4786;51.270;4.456;2023-06-10T02:59:02;20.80;99.90
9497;DHT22;4786;51.270;4.456;2023-06-10T03:01:29;20.70;99.90
9497;DHT22;4786;51.270;4.456;2023-06-10T03:03:56;20.70;99.90
9497;DHT22;4786;51.270;4.456;2023-06-10T03:06:23;20.70;99.90
9497;DHT22;4786;51.270;4.456;2023-06-10T03:08:49;20.70;99.90
9497;DHT22;4786;51.270;4.456;2023-06-10T03:11:15;20.60;99.90
9497;DHT22;4786;51.270;4.456;2023-06-10T03:13:41;20.60;99.90
9497;DHT22;4786;51.270;4.456;2023-06-10T03:16:06;20.60;99.90
9497;DHT22;4786;51.270;4.456;2023-06-10T03:18:33;20.60;99.90
9497;DHT22;4786;51.270;4.456;2023-06-10T03:20:59;20.60;99.90
9497;DHT22;4786;51.270;4.456;2023-06-10T03:23:25;20.60;99.90
9497;DHT22;4786;51.270;4.456;2023-06-10T03:25:52;20.60;99.90
9497;DHT22;4786;51.270;4.456;2023-06-10T03:28:20;20.60;99.90
9497;DHT22;4786;51.270;4.456;2023-06-10T03:30:47;20.60;99.90
9497;DHT22;4786;51.270;4.456;2023-06-10T03:33:13;20.60;99.90
9497;DHT22;4786;51.270;4.456;2023-06-10T03:35:39;20.50;99.90
9497;DHT22;4786;51.270;4.456;2023-06-10T03:38:05;20.50;99.90
9497;DHT22;4786;51.270;4.456;2023-06-10T03:40:31;20.60;99.90
9497;DHT22;4786;51.270;4.456;2023-06-10T03:42:57;20.60;99.90
9497;DHT22;4786;51.270;4.456;2023-06-10T03:45:24;20.60;99.90
9497;DHT22;4786;51.270;4.456;2023-06-10T03:47:50;20.50;99.90
9497;DHT22;4786;51.270;4.456;2023-06-10T03:50:16;20.50;99.90
9497;DHT22;4786;51.270;4.456;2023-06-10T03:52:42;20.50;99.90
9497;DHT22;4786;51.270;4.456;2023-06-10T03:55:09;20.50;99.90
9497;DHT22;4786;51.270;4.456;2023-06-10T03:57:36;20.60;99.90
9497;DHT22;4786;51.270;4.456;2023-06-10T04:00:02;20.50;99.90
9497;DHT22;4786;51.270;4.456;2023-06-10T04:02:33;20.50;99.90
9497;DHT22;4786;51.270;4.456;2023-06-10T04:05:00;20.50;99.90
9497;DHT22;4786;51.270;4.456;2023-06-10T04:07:25;20.60;99.90
9497;DHT22;4786;51.270;4.456;2023-06-10T04:09:52;20.60;99.90
9497;DHT22;4786;51.270;4.456;2023-06-10T04:12:18;20.50;99.90
9497;DHT22;4786;51.270;4.456;2023-06-10T04:14:44;20.60;99.90
9497;DHT22;4786;51.270;4.456;2023-06-10T04:17:10;20.60;99.90
9497;DHT22;4786;51.270;4.456;2023-06-10T04:19:36;20.60;99.90
9497;DHT22;4786;51.270;4.456;2023-06-10T04:22:02;20.60;99.90
9497;DHT22;4786;51.270;4.456;2023-06-10T04:24:29;20.60;99.90
9497;DHT22;4786;51.270;4.456;2023-06-10T04:26:55;20.70;99.90
9497;DHT22;4786;51.270;4.456;2023-06-10T04:29:20;20.70;99.90
9497;DHT22;4786;51.270;4.456;2023-06-10T04:31:47;20.80;99.90
9497;DHT22;4786;51.270;4.456;2023-06-10T04:34:13;20.80;99.90
9497;DHT22;4786;51.270;4.456;2023-06-10T04:36:38;20.80;99.90
9497;DHT22;4786;51.270;4.456;2023-06-10T04:39:05;20.80;99.90
9497;DHT22;4786;51.270;4.456;2023-06-10T04:41:33;20.90;99.90
9497;DHT22;4786;51.270;4.456;2023-06-10T04:43:59;20.90;99.90
9497;DHT22;4786;51.270;4.456;2023-06-10T04:46:25;21.00;99.90
9497;DHT22;4786;51.270;4.456;2023-06-10T04:48:51;20.90;99.90
9497;DHT22;4786;51.270;4.456;2023-06-10T04:51:17;21.00;99.90
9497;DHT22;4786;51.270;4.456;2023-06-10T04:53:43;21.10;99.90
9497;DHT22;4786;51.270;4.456;2023-06-10T04:56:09;21.00;99.90
9497;DHT22;4786;51.270;4.456;2023-06-10T04:58:35;21.20;99.90
9497;DHT22;4786;51.270;4.456;2023-06-10T05:01:01;21.30;99.90
9497;DHT22;4786;51.270;4.456;2023-06-10T05:03:28;21.30;99.90
9497;DHT22;4786;51.270;4.456;2023-06-10T05:05:53;21.30;99.90
9497;DHT22;4786;51.270;4.456;2023-06-10T05:08:20;21.30;99.90
9497;DHT22;4786;51.270;4.456;2023-06-10T05:10:46;21.50;99.90
9497;DHT22;4786;51.270;4.456;2023-06-10T05:13:12;21.80;99.90
9497;DHT22;4786;51.270;4.456;2023-06-10T05:15:39;22.00;99.90
9497;DHT22;4786;51.270;4.456;2023-06-10T05:18:05;22.60;99.90
9497;DHT22;4786;51.270;4.456;2023-06-10T05:20:31;23.30;99.90
9497;DHT22;4786;51.270;4.456;2023-06-10T05:22:57;24.40;99.90
9497;DHT22;4786;51.270;4.456;2023-06-10T05:25:22;25.60;99.90
9497;DHT22;4786;51.270;4.456;2023-06-10T05:27:49;26.60;99.90
9497;DHT22;4786;51.270;4.456;2023-06-10T05:30:14;27.70;99.90
9497;DHT22;4786;51.270;4.456;2023-06-10T05:32:41;28.70;99.90
9497;DHT22;4786;51.270;4.456;2023-06-10T05:35:07;29.10;99.90
9497;DHT22;4786;51.270;4.456;2023-06-10T05:37:34;29.90;99.90
9497;DHT22;4786;51.270;4.456;2023-06-10T05:40:02;30.70;99.90
9497;DHT22;4786;51.270;4.456;2023-06-10T05:42:29;31.40;99.90
9497;DHT22;4786;51.270;4.456;2023-06-10T05:44:56;31.20;98.30
9497;DHT22;4786;51.270;4.456;2023-06-10T05:47:22;31.60;97.60
9497;DHT22;4786;51.270;4.456;2023-06-10T05:49:48;32.20;95.70
9497;DHT22;4786;51.270;4.456;2023-06-10T05:52:15;32.60;94.50
9497;DHT22;4786;51.270;4.456;2023-06-10T05:54:41;33.30;94.10
9497;DHT22;4786;51.270;4.456;2023-06-10T05:57:08;33.60;92.70
9497;DHT22;4786;51.270;4.456;2023-06-10T05:59:33;34.00;91.30
9497;DHT22;4786;51.270;4.456;2023-06-10T06:02:00;33.80;89.70
9497;DHT22;4786;51.270;4.456;2023-06-10T06:04:26;34.10;89.90
9497;DHT22;4786;51.270;4.456;2023-06-10T06:06:51;34.50;88.50
9497;DHT22;4786;51.270;4.456;2023-06-10T06:09:17;34.30;84.60
9497;DHT22;4786;51.270;4.456;2023-06-10T06:11:43;34.70;84.90
9497;DHT22;4786;51.270;4.456;2023-06-10T06:14:10;34.80;82.50
9497;DHT22;4786;51.270;4.456;2023-06-10T06:16:35;34.80;81.00
9497;DHT22;4786;51.270;4.456;2023-06-10T06:19:02;35.40;82.20
9497;DHT22;4786;51.270;4.456;2023-06-10T06:21:28;35.80;79.10
9497;DHT22;4786;51.270;4.456;2023-06-10T06:23:53;36.30;79.00
9497;DHT22;4786;51.270;4.456;2023-06-10T06:26:20;36.70;78.70
9497;DHT22;4786;51.270;4.456;2023-06-10T06:28:46;36.70;74.10
9497;DHT22;4786;51.270;4.456;2023-06-10T06:31:12;36.10;74.50
9497;DHT22;4786;51.270;4.456;2023-06-10T06:33:38;36.20;74.70
9497;DHT22;4786;51.270;4.456;2023-06-10T06:36:04;36.90;73.60
9497;DHT22;4786;51.270;4.456;2023-06-10T06:38:30;37.40;72.20
9497;DHT22;4786;51.270;4.456;2023-06-10T06:40:56;37.50;70.90
9497;DHT22;4786;51.270;4.456;2023-06-10T06:43:22;37.50;68.70
9497;DHT22;4786;51.270;4.456;2023-06-10T06:45:48;37.10;69.50
9497;DHT22;4786;51.270;4.456;2023-06-10T06:48:14;37.10;70.90
9497;DHT22;4786;51.270;4.456;2023-06-10T06:50:40;37.20;71.20
9497;DHT22;4786;51.270;4.456;2023-06-10T06:53:07;37.50;69.20
9497;DHT22;4786;51.270;4.456;2023-06-10T06:55:33;37.70;68.40
9497;DHT22;4786;51.270;4.456;2023-06-10T06:57:59;37.90;67.40
9497;DHT22;4786;51.270;4.456;2023-06-10T07:00:28;37.90;65.80
9497;DHT22;4786;51.270;4.456;2023-06-10T07:02:53;37.30;65.60
9497;DHT22;4786;51.270;4.456;2023-06-10T07:05:20;36.20;66.80
9497;DHT22;4786;51.270;4.456;2023-06-10T07:07:46;36.30;67.80
9497;DHT22;4786;51.270;4.456;2023-06-10T07:10:11;36.60;68.60
9497;DHT22;4786;51.270;4.456;2023-06-10T07:12:38;36.50;68.20
9497;DHT22;4786;51.270;4.456;2023-06-10T07:15:04;36.50;68.10
9497;DHT22;4786;51.270;4.456;2023-06-10T07:17:31;36.50;66.50
9497;DHT22;4786;51.270;4.456;2023-06-10T07:19:57;36.50;67.50
9497;DHT22;4786;51.270;4.456;2023-06-10T07:22:25;36.40;67.20
9497;DHT22;4786;51.270;4.456;2023-06-10T07:24:51;36.00;67.40
9497;DHT22;4786;51.270;4.456;2023-06-10T07:27:17;35.60;67.60
9497;DHT22;4786;51.270;4.456;2023-06-10T07:29:43;35.50;69.80
9497;DHT22;4786;51.270;4.456;2023-06-10T07:32:09;35.40;69.50
9497;DHT22;4786;51.270;4.456;2023-06-10T07:34:35;35.30;72.30
9497;DHT22;4786;51.270;4.456;2023-06-10T07:37:01;34.90;70.00
9497;DHT22;4786;51.270;4.456;2023-06-10T07:39:27;34.60;70.80
9497;DHT22;4786;51.270;4.456;2023-06-10T07:41:53;34.00;69.80
9497;DHT22;4786;51.270;4.456;2023-06-10T07:44:21;33.70;71.60
9497;DHT22;4786;51.270;4.456;2023-06-10T07:46:46;33.60;72.50
9497;DHT22;4786;51.270;4.456;2023-06-10T07:49:13;33.40;72.50
9497;DHT22;4786;51.270;4.456;2023-06-10T07:51:38;33.40;73.30
9497;DHT22;4786;51.270;4.456;2023-06-10T07:54:04;33.40;75.60
9497;DHT22;4786;51.270;4.456;2023-06-10T07:56:30;33.40;74.50
9497;DHT22;4786;51.270;4.456;2023-06-10T07:58:57;33.50;75.90
9497;DHT22;4786;51.270;4.456;2023-06-10T08:01:23;33.50;73.40
9497;DHT22;4786;51.270;4.456;2023-06-10T08:03:49;33.50;72.60
9497;DHT22;4786;51.270;4.456;2023-06-10T08:06:15;33.40;74.10
9497;DHT22;4786;51.270;4.456;2023-06-10T08:08:43;33.30;74.10
9497;DHT22;4786;51.270;4.456;2023-06-10T08:11:13;33.50;73.70
9497;DHT22;4786;51.270;4.456;2023-06-10T08:13:39;33.00;71.20
9497;DHT22;4786;51.270;4.456;2023-06-10T08:16:05;32.60;72.20
9497;DHT22;4786;51.270;4.456;2023-06-10T08:18:31;32.60;74.50
9497;DHT22;4786;51.270;4.456;2023-06-10T08:20:57;32.70;72.00
9497;DHT22;4786;51.270;4.456;2023-06-10T08:23:23;32.90;75.10
9497;DHT22;4786;51.270;4.456;2023-06-10T08:25:49;33.00;74.40
9497;DHT22;4786;51.270;4.456;2023-06-10T08:28:15;33.10;78.00
9497;DHT22;4786;51.270;4.456;2023-06-10T08:30:41;33.30;76.00
9497;DHT22;4786;51.270;4.456;2023-06-10T08:33:07;33.50;73.30
9497;DHT22;4786;51.270;4.456;2023-06-10T08:35:32;33.50;72.80
9497;DHT22;4786;51.270;4.456;2023-06-10T08:37:59;33.30;71.70
9497;DHT22;4786;51.270;4.456;2023-06-10T08:40:25;33.30;71.70
9497;DHT22;4786;51.270;4.456;2023-06-10T08:43:22;33.40;76.50
9497;DHT22;4786;51.270;4.456;2023-06-10T08:45:53;33.60;74.20
9497;DHT22;4786;51.270;4.456;2023-06-10T08:48:22;33.80;73.10
9497;DHT22;4786;51.270;4.456;2023-06-10T08:50:50;33.90;72.10
9497;DHT22;4786;51.270;4.456;2023-06-10T08:53:18;34.00;75.00
9497;DHT22;4786;51.270;4.456;2023-06-10T08:55:49;34.00;71.90
9497;DHT22;4786;51.270;4.456;2023-06-10T08:58:16;34.00;70.70
9497;DHT22;4786;51.270;4.456;2023-06-10T09:00:43;34.00;73.20
9497;DHT22;4786;51.270;4.456;2023-06-10T09:03:09;33.80;73.60
9497;DHT22;4786;51.270;4.456;2023-06-10T09:05:35;33.80;72.50
9497;DHT22;4786;51.270;4.456;2023-06-10T09:08:06;33.90;71.10
9497;DHT22;4786;51.270;4.456;2023-06-10T09:10:33;33.80;72.60
9497;DHT22;4786;51.270;4.456;2023-06-10T09:12:59;33.80;70.50
9497;DHT22;4786;51.270;4.456;2023-06-10T09:15:25;33.70;69.70
9497;DHT22;4786;51.270;4.456;2023-06-10T09:17:52;33.70;73.20
9497;DHT22;4786;51.270;4.456;2023-06-10T09:20:19;33.90;73.50
9497;DHT22;4786;51.270;4.456;2023-06-10T09:22:44;34.00;71.20
9497;DHT22;4786;51.270;4.456;2023-06-10T09:25:12;34.10;69.60
9497;DHT22;4786;51.270;4.456;2023-06-10T09:27:49;34.20;70.20
9497;DHT22;4786;51.270;4.456;2023-06-10T09:30:32;34.30;70.20
9497;DHT22;4786;51.270;4.456;2023-06-10T09:33:02;34.40;70.30
9497;DHT22;4786;51.270;4.456;2023-06-10T09:35:29;34.50;71.90
9497;DHT22;4786;51.270;4.456;2023-06-10T09:37:58;34.60;67.80
9497;DHT22;4786;51.270;4.456;2023-06-10T09:40:25;34.80;69.80
9497;DHT22;4786;51.270;4.456;2023-06-10T09:42:58;34.80;67.30
9497;DHT22;4786;51.270;4.456;2023-06-10T09:45:32;35.00;67.90
9497;DHT22;4786;51.270;4.456;2023-06-10T09:47:58;35.20;65.50
9497;DHT22;4786;51.270;4.456;2023-06-10T09:50:24;35.10;65.40
9497;DHT22;4786;51.270;4.456;2023-06-10T09:52:50;34.90;63.90
9497;DHT22;4786;51.270;4.456;2023-06-10T09:55:17;35.10;65.50
9497;DHT22;4786;51.270;4.456;2023-06-10T09:57:44;35.30;63.50
9497;DHT22;4786;51.270;4.456;2023-06-10T10:00:14;35.50;66.00
9497;DHT22;4786;51.270;4.456;2023-06-10T10:02:49;35.50;65.20
9497;DHT22;4786;51.270;4.456;2023-06-10T10:05:16;35.50;65.60
9497;DHT22;4786;51.270;4.456;2023-06-10T10:07:44;35.50;63.70
9497;DHT22;4786;51.270;4.456;2023-06-10T10:10:10;35.50;61.40
9497;DHT22;4786;51.270;4.456;2023-06-10T10:12:39;35.30;61.90
9497;DHT22;4786;51.270;4.456;2023-06-10T10:15:09;35.20;60.40
9497;DHT22;4786;51.270;4.456;2023-06-10T10:17:40;35.30;64.00
9497;DHT22;4786;51.270;4.456;2023-06-10T10:20:08;35.30;60.80
9497;DHT22;4786;51.270;4.456;2023-06-10T10:22:39;35.30;61.30
9497;DHT22;4786;51.270;4.456;2023-06-10T10:25:42;35.30;60.80
9497;DHT22;4786;51.270;4.456;2023-06-10T10:28:19;35.60;62.60
9497;DHT22;4786;51.270;4.456;2023-06-10T10:30:50;35.70;59.70
9497;DHT22;4786;51.270;4.456;2023-06-10T10:33:20;35.60;58.70
9497;DHT22;4786;51.270;4.456;2023-06-10T10:35:48;35.70;57.90
9497;DHT22;4786;51.270;4.456;2023-06-10T10:38:15;35.60;57.10
9497;DHT22;4786;51.270;4.456;2023-06-10T10:40:41;35.70;58.30
9497;DHT22;4786;51.270;4.456;2023-06-10T10:43:09;35.80;60.50
9497;DHT22;4786;51.270;4.456;2023-06-10T10:45:35;35.80;58.00
9497;DHT22;4786;51.270;4.456;2023-06-10T10:48:07;36.00;59.20
9497;DHT22;4786;51.270;4.456;2023-06-10T10:50:35;35.90;54.80
9497;DHT22;4786;51.270;4.456;2023-06-10T10:53:04;35.70;55.90
9497;DHT22;4786;51.270;4.456;2023-06-10T10:55:30;35.70;58.50
9497;DHT22;4786;51.270;4.456;2023-06-10T10:58:03;35.90;58.90
9497;DHT22;4786;51.270;4.456;2023-06-10T11:00:37;36.20;57.00
9497;DHT22;4786;51.270;4.456;2023-06-10T11:05:48;36.20;55.00
9497;DHT22;4786;51.270;4.456;2023-06-10T11:08:15;36.20;54.30
9497;DHT22;4786;51.270;4.456;2023-06-10T11:11:02;36.20;56.60
9497;DHT22;4786;51.270;4.456;2023-06-10T11:14:06;36.20;53.70
9497;DHT22;4786;51.270;4.456;2023-06-10T11:16:42;36.00;54.10
9497;DHT22;4786;51.270;4.456;2023-06-10T11:19:08;36.00;54.30
9497;DHT22;4786;51.270;4.456;2023-06-10T11:21:59;35.90;56.60
9497;DHT22;4786;51.270;4.456;2023-06-10T11:24:25;35.90;56.00
9497;DHT22;4786;51.270;4.456;2023-06-10T11:26:52;35.70;55.90
9497;DHT22;4786;51.270;4.456;2023-06-10T11:29:18;35.70;55.30
9497;DHT22;4786;51.270;4.456;2023-06-10T11:31:49;35.50;53.50
9497;DHT22;4786;51.270;4.456;2023-06-10T11:34:20;35.30;52.70
9497;DHT22;4786;51.270;4.456;2023-06-10T11:36:49;35.30;56.40
9497;DHT22;4786;51.270;4.456;2023-06-10T11:39:15;35.30;52.70
9497;DHT22;4786;51.270;4.456;2023-06-10T11:41:40;35.10;53.50
9497;DHT22;4786;51.270;4.456;2023-06-10T11:44:14;35.00;54.60
9497;DHT22;4786;51.270;4.456;2023-06-10T11:46:40;35.10;55.60
9497;DHT22;4786;51.270;4.456;2023-06-10T11:49:08;35.20;56.50
9497;DHT22;4786;51.270;4.456;2023-06-10T11:51:35;35.40;56.40
9497;DHT22;4786;51.270;4.456;2023-06-10T11:54:02;35.50;55.60
9497;DHT22;4786;51.270;4.456;2023-06-10T11:56:29;35.50;53.00
9497;DHT22;4786;51.270;4.456;2023-06-10T12:01:25;35.80;56.40
9497;DHT22;4786;51.270;4.456;2023-06-10T12:03:58;35.60;54.10
9497;DHT22;4786;51.270;4.456;2023-06-10T12:06:24;35.80;54.50
9497;DHT22;4786;51.270;4.456;2023-06-10T12:08:50;35.90;53.50
9497;DHT22;4786;51.270;4.456;2023-06-10T12:11:17;35.80;53.20
9497;DHT22;4786;51.270;4.456;2023-06-10T12:13:47;35.80;52.50
9497;DHT22;4786;51.270;4.456;2023-06-10T12:16:14;35.80;53.20
9497;DHT22;4786;51.270;4.456;2023-06-10T12:18:43;35.80;52.70
9497;DHT22;4786;51.270;4.456;2023-06-10T12:21:19;35.80;53.30
9497;DHT22;4786;51.270;4.456;2023-06-10T12:24:08;36.00;54.00
9497;DHT22;4786;51.270;4.456;2023-06-10T12:26:36;35.80;54.00
9497;DHT22;4786;51.270;4.456;2023-06-10T12:29:15;35.50;51.30
9497;DHT22;4786;51.270;4.456;2023-06-10T12:31:58;35.70;54.60
9497;DHT22;4786;51.270;4.456;2023-06-10T12:34:35;35.60;51.90
9497;DHT22;4786;51.270;4.456;2023-06-10T12:37:03;35.50;51.70
9497;DHT22;4786;51.270;4.456;2023-06-10T12:39:30;35.40;52.40
9497;DHT22;4786;51.270;4.456;2023-06-10T12:41:57;35.30;52.20
9497;DHT22;4786;51.270;4.456;2023-06-10T12:44:34;34.80;52.10
9497;DHT22;4786;51.270;4.456;2023-06-10T12:47:06;34.70;52.40
9497;DHT22;4786;51.270;4.456;2023-06-10T12:49:32;34.80;53.70
9497;DHT22;4786;51.270;4.456;2023-06-10T12:51:58;34.80;54.80
9497;DHT22;4786;51.270;4.456;2023-06-10T12:54:24;34.90;56.20
9497;DHT22;4786;51.270;4.456;2023-06-10T12:56:51;34.90;52.10
9497;DHT22;4786;51.270;4.456;2023-06-10T12:59:17;35.00;51.80
9497;DHT22;4786;51.270;4.456;2023-06-10T13:01:43;35.20;53.40
9497;DHT22;4786;51.270;4.456;2023-06-10T13:04:09;35.10;55.10
9497;DHT22;4786;51.270;4.456;2023-06-10T13:06:36;35.00;53.90
9497;DHT22;4786;51.270;4.456;2023-06-10T13:09:04;35.00;54.10
9497;DHT22;4786;51.270;4.456;2023-06-10T13:11:32;35.10;52.60
9497;DHT22;4786;51.270;4.456;2023-06-10T13:13:58;35.30;54.80
9497;DHT22;4786;51.270;4.456;2023-06-10T13:16:23;35.30;53.10
9497;DHT22;4786;51.270;4.456;2023-06-10T13:18:49;35.50;53.30
9497;DHT22;4786;51.270;4.456;2023-06-10T13:21:15;35.50;50.80
9497;DHT22;4786;51.270;4.456;2023-06-10T13:23:44;35.40;49.60
9497;DHT22;4786;51.270;4.456;2023-06-10T13:26:11;35.20;52.30
9497;DHT22;4786;51.270;4.456;2023-06-10T13:28:37;35.00;52.40
9497;DHT22;4786;51.270;4.456;2023-06-10T13:31:03;35.00;51.60
9497;DHT22;4786;51.270;4.456;2023-06-10T13:33:29;35.00;54.10
9497;DHT22;4786;51.270;4.456;2023-06-10T13:35:55;35.00;53.10
9497;DHT22;4786;51.270;4.456;2023-06-10T13:38:21;34.90;50.90
9497;DHT22;4786;51.270;4.456;2023-06-10T13:40:47;34.80;53.80
9497;DHT22;4786;51.270;4.456;2023-06-10T13:43:13;34.60;53.80
9497;DHT22;4786;51.270;4.456;2023-06-10T13:45:39;34.60;51.40
9497;DHT22;4786;51.270;4.456;2023-06-10T13:48:05;34.70;53.40
9497;DHT22;4786;51.270;4.456;2023-06-10T13:50:31;34.50;53.10
9497;DHT22;4786;51.270;4.456;2023-06-10T13:52:57;34.50;54.10
9497;DHT22;4786;51.270;4.456;2023-06-10T13:55:23;34.50;51.70
9497;DHT22;4786;51.270;4.456;2023-06-10T13:57:50;34.20;51.40
9497;DHT22;4786;51.270;4.456;2023-06-10T14:00:16;34.30;53.90
9497;DHT22;4786;51.270;4.456;2023-06-10T14:02:42;34.40;50.50
9497;DHT22;4786;51.270;4.456;2023-06-10T14:05:08;34.60;52.20
9497;DHT22;4786;51.270;4.456;2023-06-10T14:07:34;34.90;52.90
9497;DHT22;4786;51.270;4.456;2023-06-10T14:10:00;34.90;54.20
9497;DHT22;4786;51.270;4.456;2023-06-10T14:12:27;35.00;51.40
9497;DHT22;4786;51.270;4.456;2023-06-10T14:14:52;35.00;50.00
9497;DHT22;4786;51.270;4.456;2023-06-10T14:17:19;34.70;49.30
9497;DHT22;4786;51.270;4.456;2023-06-10T14:19:45;34.60;50.10
9497;DHT22;4786;51.270;4.456;2023-06-10T14:22:12;34.40;49.70
9497;DHT22;4786;51.270;4.456;2023-06-10T14:24:37;34.40;50.20
9497;DHT22;4786;51.270;4.456;2023-06-10T14:27:04;34.50;51.00
9497;DHT22;4786;51.270;4.456;2023-06-10T14:29:30;34.50;51.90
9497;DHT22;4786;51.270;4.456;2023-06-10T14:31:57;34.50;53.40
9497;DHT22;4786;51.270;4.456;2023-06-10T14:34:22;34.50;51.80
9497;DHT22;4786;51.270;4.456;2023-06-10T14:36:54;34.20;51.80
9497;DHT22;4786;51.270;4.456;2023-06-10T14:39:20;34.10;52.30
9497;DHT22;4786;51.270;4.456;2023-06-10T14:41:46;34.20;53.50
9497;DHT22;4786;51.270;4.456;2023-06-10T14:44:11;34.20;52.90
9497;DHT22;4786;51.270;4.456;2023-06-10T14:46:38;34.00;51.60
9497;DHT22;4786;51.270;4.456;2023-06-10T14:49:03;33.90;51.80
9497;DHT22;4786;51.270;4.456;2023-06-10T14:51:29;33.80;51.80
9497;DHT22;4786;51.270;4.456;2023-06-10T14:53:55;33.80;52.30
9497;DHT22;4786;51.270;4.456;2023-06-10T14:56:20;33.80;52.40
9497;DHT22;4786;51.270;4.456;2023-06-10T14:58:46;34.00;52.30
9497;DHT22;4786;51.270;4.456;2023-06-10T15:01:12;34.00;50.50
9497;DHT22;4786;51.270;4.456;2023-06-10T15:03:38;34.20;51.60
9497;DHT22;4786;51.270;4.456;2023-06-10T15:06:03;34.00;52.20
9497;DHT22;4786;51.270;4.456;2023-06-10T15:08:29;34.10;51.50
9497;DHT22;4786;51.270;4.456;2023-06-10T15:10:55;34.10;51.40
9497;DHT22;4786;51.270;4.456;2023-06-10T15:13:22;34.10;53.00
9497;DHT22;4786;51.270;4.456;2023-06-10T15:15:49;34.00;52.30
9497;DHT22;4786;51.270;4.456;2023-06-10T15:18:15;33.80;52.20
9497;DHT22;4786;51.270;4.456;2023-06-10T15:20:41;33.80;52.60
9497;DHT22;4786;51.270;4.456;2023-06-10T15:23:07;33.70;50.40
9497;DHT22;4786;51.270;4.456;2023-06-10T15:25:33;33.60;51.70
9497;DHT22;4786;51.270;4.456;2023-06-10T15:27:59;33.50;53.30
9497;DHT22;4786;51.270;4.456;2023-06-10T15:30:25;33.50;51.70
9497;DHT22;4786;51.270;4.456;2023-06-10T15:32:51;33.50;51.40
9497;DHT22;4786;51.270;4.456;2023-06-10T15:35:17;33.50;51.10
9497;DHT22;4786;51.270;4.456;2023-06-10T15:37:43;33.60;52.10
9497;DHT22;4786;51.270;4.456;2023-06-10T15:40:09;33.70;50.90
9497;DHT22;4786;51.270;4.456;2023-06-10T15:42:36;33.70;50.20
9497;DHT22;4786;51.270;4.456;2023-06-10T15:45:02;33.60;49.50
9497;DHT22;4786;51.270;4.456;2023-06-10T15:47:28;33.40;49.90
9497;DHT22;4786;51.270;4.456;2023-06-10T15:49:55;33.50;50.50
9497;DHT22;4786;51.270;4.456;2023-06-10T15:52:21;33.40;51.00
9497;DHT22;4786;51.270;4.456;2023-06-10T15:54:46;33.50;52.20
9497;DHT22;4786;51.270;4.456;2023-06-10T15:57:13;33.40;51.60
9497;DHT22;4786;51.270;4.456;2023-06-10T15:59:39;33.40;52.00
9497;DHT22;4786;51.270;4.456;2023-06-10T16:02:05;33.30;51.00
9497;DHT22;4786;51.270;4.456;2023-06-10T16:04:31;33.30;52.10
9497;DHT22;4786;51.270;4.456;2023-06-10T16:06:57;33.20;52.60
9497;DHT22;4786;51.270;4.456;2023-06-10T16:09:24;33.20;52.80
9497;DHT22;4786;51.270;4.456;2023-06-10T16:11:50;33.20;52.00
9497;DHT22;4786;51.270;4.456;2023-06-10T16:14:15;33.30;51.70